sensor_id;sensor_type;location;lat;lon;timestamp;P1;durP1;ratioP1;P2;durP2;ratioP2
22270;SDS011;11304;53.520;10.104;2023-02-01T00:00:13;27.67;;;4.22;;
22270;SDS011;11304;53.520;10.104;2023-02-01T00:02:39;17.88;;;3.78;;
22270;SDS011;11304;53.520;10.104;2023-02-01T00:05:08;25.92;;;4.45;;
22270;SDS011;11304;53.520;10.104;2023-02-01T00:07:35;24.88;;;4.50;;
22270;SDS011;11304;53.520;10.104;2023-02-01T00:10:01;31.95;;;4.72;;
22270;SDS011;11304;53.520;10.104;2023-02-01T00:12:28;28.42;;;4.88;;
22270;SDS011;11304;53.520;10.104;2023-02-01T00:14:54;30.85;;;5.53;;
22270;SDS011;11304;53.520;10.104;2023-02-01T00:17:20;27.83;;;4.65;;
22270;SDS011;11304;53.520;10.104;2023-02-01T00:19:46;29.40;;;5.63;;
22270;SDS011;11304;53.520;10.104;2023-02-01T00:22:14;32.35;;;5.45;;
22270;SDS011;11304;53.520;10.104;2023-02-01T00:24:40;38.70;;;5.65;;
22270;SDS011;11304;53.520;10.104;2023-02-01T00:27:06;23.90;;;4.63;;
22270;SDS011;11304;53.520;10.104;2023-02-01T00:29:32;33.65;;;5.53;;
22270;SDS011;11304;53.520;10.104;2023-02-01T00:31:58;35.35;;;5.45;;
22270;SDS011;11304;53.520;10.104;2023-02-01T00:34:24;34.72;;;5.90;;
22270;SDS011;11304;53.520;10.104;2023-02-01T00:36:50;35.47;;;5.85;;
22270;SDS011;11304;53.520;10.104;2023-02-01T00:39:16;32.85;;;5.88;;
22270;SDS011;11304;53.520;10.104;2023-02-01T00:41:43;35.60;;;4.82;;
22270;SDS011;11304;53.520;10.104;2023-02-01T00:44:09;30.88;;;5.75;;
22270;SDS011;11304;53.520;10.104;2023-02-01T00:46:35;37.50;;;5.75;;
22270;SDS011;11304;53.520;10.104;2023-02-01T00:49:01;29.40;;;5.50;;
22270;SDS011;11304;53.520;10.104;2023-02-01T00:51:28;31.77;;;5.22;;
22270;SDS011;11304;53.520;10.104;2023-02-01T00:53:54;39.65;;;6.20;;
22270;SDS011;11304;53.520;10.104;2023-02-01T00:56:21;31.88;;;5.38;;
22270;SDS011;11304;53.520;10.104;2023-02-01T00:58:47;31.27;;;6.28;;
22270;SDS011;11304;53.520;10.104;2023-02-01T01:01:15;34.25;;;5.85;;
22270;SDS011;11304;53.520;10.104;2023-02-01T01:03:42;39.08;;;6.30;;
22270;SDS011;11304;53.520;10.104;2023-02-01T01:06:10;35.97;;;5.53;;
22270;SDS011;11304;53.520;10.104;2023-02-01T01:08:37;35.03;;;5.95;;
22270;SDS011;11304;53.520;10.104;2023-02-01T01:11:04;39.05;;;6.03;;
22270;SDS011;11304;53.520;10.104;2023-02-01T01:13:30;34.33;;;6.10;;
22270;SDS011;11304;53.520;10.104;2023-02-01T01:15:59;40.13;;;6.55;;
22270;SDS011;11304;53.520;10.104;2023-02-01T01:18:27;30.85;;;6.07;;
22270;SDS011;11304;53.520;10.104;2023-02-01T01:20:54;34.55;;;6.40;;
22270;SDS011;11304;53.520;10.104;2023-02-01T01:23:20;32.38;;;5.47;;
22270;SDS011;11304;53.520;10.104;2023-02-01T01:25:46;32.72;;;5.43;;
22270;SDS011;11304;53.520;10.104;2023-02-01T01:28:12;33.97;;;6.07;;
22270;SDS011;11304;53.520;10.104;2023-02-01T01:30:38;41.72;;;6.03;;
22270;SDS011;11304;53.520;10.104;2023-02-01T01:33:04;26.92;;;5.82;;
22270;SDS011;11304;53.520;10.104;2023-02-01T01:35:31;42.70;;;6.57;;
22270;SDS011;11304;53.520;10.104;2023-02-01T01:37:57;37.10;;;6.25;;
22270;SDS011;11304;53.520;10.104;2023-02-01T01:40:24;30.67;;;5.93;;
22270;SDS011;11304;53.520;10.104;2023-02-01T01:42:51;39.38;;;6.75;;
22270;SDS011;11304;53.520;10.104;2023-02-01T01:50:46;41.85;;;7.40;;
22270;SDS011;11304;53.520;10.104;2023-02-01T01:53:16;28.25;;;6.05;;
22270;SDS011;11304;53.520;10.104;2023-02-01T01:55:43;35.72;;;6.45;;
22270;SDS011;11304;53.520;10.104;2023-02-01T01:58:12;44.97;;;7.43;;
22270;SDS011;11304;53.520;10.104;2023-02-01T02:00:39;35.58;;;5.85;;
22270;SDS011;11304;53.520;10.104;2023-02-01T02:03:27;35.80;;;6.25;;
22270;SDS011;11304;53.520;10.104;2023-02-01T02:05:52;34.75;;;6.13;;
22270;SDS011;11304;53.520;10.104;2023-02-01T02:08:20;43.13;;;7.03;;
22270;SDS011;11304;53.520;10.104;2023-02-01T02:10:48;34.38;;;6.60;;
22270;SDS011;11304;53.520;10.104;2023-02-01T02:13:31;28.52;;;6.15;;
22270;SDS011;11304;53.520;10.104;2023-02-01T02:18:30;30.60;;;5.80;;
22270;SDS011;11304;53.520;10.104;2023-02-01T02:21:11;40.65;;;6.72;;
22270;SDS011;11304;53.520;10.104;2023-02-01T02:26:23;39.75;;;7.72;;
22270;SDS011;11304;53.520;10.104;2023-02-01T02:36:56;36.92;;;6.53;;
22270;SDS011;11304;53.520;10.104;2023-02-01T02:42:29;39.88;;;6.88;;
22270;SDS011;11304;53.520;10.104;2023-02-01T02:45:18;36.22;;;6.93;;
22270;SDS011;11304;53.520;10.104;2023-02-01T02:48:12;33.63;;;6.28;;
22270;SDS011;11304;53.520;10.104;2023-02-01T02:50:44;36.45;;;6.18;;
22270;SDS011;11304;53.520;10.104;2023-02-01T02:53:32;39.88;;;7.30;;
22270;SDS011;11304;53.520;10.104;2023-02-01T02:56:18;32.20;;;6.45;;
22270;SDS011;11304;53.520;10.104;2023-02-01T02:59:06;44.90;;;6.50;;
22270;SDS011;11304;53.520;10.104;2023-02-01T03:01:51;29.15;;;5.55;;
22270;SDS011;11304;53.520;10.104;2023-02-01T03:04:36;32.30;;;6.40;;
22270;SDS011;11304;53.520;10.104;2023-02-01T03:07:13;41.45;;;6.78;;
22270;SDS011;11304;53.520;10.104;2023-02-01T03:09:39;43.13;;;6.38;;
22270;SDS011;11304;53.520;10.104;2023-02-01T03:12:11;46.15;;;6.68;;
22270;SDS011;11304;53.520;10.104;2023-02-01T03:14:59;33.13;;;5.55;;
22270;SDS011;11304;53.520;10.104;2023-02-01T03:17:28;23.88;;;5.95;;
22270;SDS011;11304;53.520;10.104;2023-02-01T03:19:56;35.70;;;5.80;;
22270;SDS011;11304;53.520;10.104;2023-02-01T03:22:27;41.70;;;6.10;;
22270;SDS011;11304;53.520;10.104;2023-02-01T03:25:01;36.17;;;6.22;;
22270;SDS011;11304;53.520;10.104;2023-02-01T03:27:40;23.38;;;4.47;;
22270;SDS011;11304;53.520;10.104;2023-02-01T03:32:36;31.42;;;5.32;;
22270;SDS011;11304;53.520;10.104;2023-02-01T03:35:23;19.42;;;4.25;;
22270;SDS011;11304;53.520;10.104;2023-02-01T03:37:52;19.83;;;3.50;;
22270;SDS011;11304;53.520;10.104;2023-02-01T03:40:19;17.87;;;3.20;;
22270;SDS011;11304;53.520;10.104;2023-02-01T03:42:46;15.75;;;2.75;;
22270;SDS011;11304;53.520;10.104;2023-02-01T03:47:48;18.13;;;3.13;;
22270;SDS011;11304;53.520;10.104;2023-02-01T03:50:18;14.38;;;3.00;;
22270;SDS011;11304;53.520;10.104;2023-02-01T03:52:52;15.25;;;2.53;;
22270;SDS011;11304;53.520;10.104;2023-02-01T03:55:20;14.27;;;2.70;;
22270;SDS011;11304;53.520;10.104;2023-02-01T03:58:04;9.32;;;2.33;;
22270;SDS011;11304;53.520;10.104;2023-02-01T04:00:32;16.35;;;3.42;;
22270;SDS011;11304;53.520;10.104;2023-02-01T04:02:58;15.40;;;2.90;;
22270;SDS011;11304;53.520;10.104;2023-02-01T04:05:24;22.63;;;3.70;;
22270;SDS011;11304;53.520;10.104;2023-02-01T04:07:50;20.58;;;3.72;;
22270;SDS011;11304;53.520;10.104;2023-02-01T04:10:16;23.33;;;4.03;;
22270;SDS011;11304;53.520;10.104;2023-02-01T04:25:08;24.63;;;4.43;;
22270;SDS011;11304;53.520;10.104;2023-02-01T04:27:34;24.95;;;3.78;;
22270;SDS011;11304;53.520;10.104;2023-02-01T04:30:00;18.60;;;2.85;;
22270;SDS011;11304;53.520;10.104;2023-02-01T04:32:27;15.93;;;3.13;;
22270;SDS011;11304;53.520;10.104;2023-02-01T04:34:53;14.32;;;3.30;;
22270;SDS011;11304;53.520;10.104;2023-02-01T04:37:19;16.75;;;3.40;;
22270;SDS011;11304;53.520;10.104;2023-02-01T04:39:45;16.40;;;2.75;;
22270;SDS011;11304;53.520;10.104;2023-02-01T04:42:12;20.10;;;3.67;;
22270;SDS011;11304;53.520;10.104;2023-02-01T04:44:38;21.55;;;3.22;;
22270;SDS011;11304;53.520;10.104;2023-02-01T04:47:06;18.52;;;3.20;;
22270;SDS011;11304;53.520;10.104;2023-02-01T04:49:32;19.38;;;2.80;;
22270;SDS011;11304;53.520;10.104;2023-02-01T04:51:59;17.00;;;3.13;;
22270;SDS011;11304;53.520;10.104;2023-02-01T04:54:25;14.68;;;3.05;;
22270;SDS011;11304;53.520;10.104;2023-02-01T04:56:51;16.27;;;3.08;;
22270;SDS011;11304;53.520;10.104;2023-02-01T04:59:17;17.42;;;3.20;;
22270;SDS011;11304;53.520;10.104;2023-02-01T05:01:43;13.55;;;2.80;;
22270;SDS011;11304;53.520;10.104;2023-02-01T05:04:09;10.63;;;2.42;;
22270;SDS011;11304;53.520;10.104;2023-02-01T05:06:35;10.07;;;3.17;;
22270;SDS011;11304;53.520;10.104;2023-02-01T05:09:01;15.15;;;2.65;;
22270;SDS011;11304;53.520;10.104;2023-02-01T05:11:27;9.05;;;2.42;;
22270;SDS011;11304;53.520;10.104;2023-02-01T05:14:12;8.07;;;1.60;;
22270;SDS011;11304;53.520;10.104;2023-02-01T05:16:38;7.90;;;2.17;;
22270;SDS011;11304;53.520;10.104;2023-02-01T05:19:04;6.45;;;1.45;;
22270;SDS011;11304;53.520;10.104;2023-02-01T05:21:30;11.75;;;1.67;;
22270;SDS011;11304;53.520;10.104;2023-02-01T05:23:56;5.90;;;1.35;;
22270;SDS011;11304;53.520;10.104;2023-02-01T05:26:35;4.85;;;1.05;;
22270;SDS011;11304;53.520;10.104;2023-02-01T05:29:01;5.57;;;1.20;;
22270;SDS011;11304;53.520;10.104;2023-02-01T05:31:27;3.28;;;0.95;;
22270;SDS011;11304;53.520;10.104;2023-02-01T05:33:53;4.72;;;1.25;;
22270;SDS011;11304;53.520;10.104;2023-02-01T05:36:19;5.05;;;1.17;;
22270;SDS011;11304;53.520;10.104;2023-02-01T05:38:45;4.78;;;1.20;;
22270;SDS011;11304;53.520;10.104;2023-02-01T05:41:11;3.10;;;0.75;;
22270;SDS011;11304;53.520;10.104;2023-02-01T05:43:38;3.75;;;0.90;;
22270;SDS011;11304;53.520;10.104;2023-02-01T05:46:04;4.70;;;1.20;;
22270;SDS011;11304;53.520;10.104;2023-02-01T05:48:30;3.28;;;1.05;;
22270;SDS011;11304;53.520;10.104;2023-02-01T05:50:56;4.35;;;1.20;;
22270;SDS011;11304;53.520;10.104;2023-02-01T05:53:22;4.90;;;1.20;;
22270;SDS011;11304;53.520;10.104;2023-02-01T05:55:48;3.80;;;0.95;;
22270;SDS011;11304;53.520;10.104;2023-02-01T05:58:14;3.72;;;1.23;;
22270;SDS011;11304;53.520;10.104;2023-02-01T06:00:40;3.30;;;0.90;;
22270;SDS011;11304;53.520;10.104;2023-02-01T06:03:07;3.03;;;1.08;;
22270;SDS011;11304;53.520;10.104;2023-02-01T06:05:33;5.70;;;1.38;;
22270;SDS011;11304;53.520;10.104;2023-02-01T06:07:59;3.38;;;1.35;;
22270;SDS011;11304;53.520;10.104;2023-02-01T06:10:25;4.00;;;1.00;;
22270;SDS011;11304;53.520;10.104;2023-02-01T06:12:52;3.15;;;1.20;;
22270;SDS011;11304;53.520;10.104;2023-02-01T06:15:18;4.68;;;1.50;;
22270;SDS011;11304;53.520;10.104;2023-02-01T06:17:45;4.65;;;1.70;;
22270;SDS011;11304;53.520;10.104;2023-02-01T06:20:12;7.07;;;1.63;;
22270;SDS011;11304;53.520;10.104;2023-02-01T06:22:38;5.07;;;1.30;;
22270;SDS011;11304;53.520;10.104;2023-02-01T06:25:05;6.07;;;1.65;;
22270;SDS011;11304;53.520;10.104;2023-02-01T06:27:32;11.40;;;2.15;;
22270;SDS011;11304;53.520;10.104;2023-02-01T06:29:58;9.25;;;2.15;;
22270;SDS011;11304;53.520;10.104;2023-02-01T06:32:24;4.05;;;1.60;;
22270;SDS011;11304;53.520;10.104;2023-02-01T06:34:50;7.63;;;1.73;;
22270;SDS011;11304;53.520;10.104;2023-02-01T06:37:21;8.82;;;1.90;;
22270;SDS011;11304;53.520;10.104;2023-02-01T06:39:48;8.80;;;2.00;;
22270;SDS011;11304;53.520;10.104;2023-02-01T06:42:14;9.15;;;2.33;;
22270;SDS011;11304;53.520;10.104;2023-02-01T06:44:40;8.98;;;2.35;;
22270;SDS011;11304;53.520;10.104;2023-02-01T06:47:06;15.25;;;2.78;;
22270;SDS011;11304;53.520;10.104;2023-02-01T06:49:32;16.25;;;2.90;;
22270;SDS011;11304;53.520;10.104;2023-02-01T06:51:58;15.65;;;2.80;;
22270;SDS011;11304;53.520;10.104;2023-02-01T06:54:25;12.60;;;2.00;;
22270;SDS011;11304;53.520;10.104;2023-02-01T06:56:51;18.05;;;2.88;;
22270;SDS011;11304;53.520;10.104;2023-02-01T06:59:17;15.85;;;2.88;;
22270;SDS011;11304;53.520;10.104;2023-02-01T07:01:44;14.05;;;3.00;;
22270;SDS011;11304;53.520;10.104;2023-02-01T07:04:10;14.57;;;2.85;;
22270;SDS011;11304;53.520;10.104;2023-02-01T07:06:37;17.67;;;3.30;;
22270;SDS011;11304;53.520;10.104;2023-02-01T07:09:04;20.65;;;3.88;;
22270;SDS011;11304;53.520;10.104;2023-02-01T07:11:30;21.38;;;3.92;;
22270;SDS011;11304;53.520;10.104;2023-02-01T07:13:57;20.75;;;3.47;;
22270;SDS011;11304;53.520;10.104;2023-02-01T07:16:23;20.80;;;4.70;;
22270;SDS011;11304;53.520;10.104;2023-02-01T07:18:49;21.35;;;3.65;;
22270;SDS011;11304;53.520;10.104;2023-02-01T07:21:16;21.85;;;4.43;;
22270;SDS011;11304;53.520;10.104;2023-02-01T07:23:42;23.42;;;4.63;;
22270;SDS011;11304;53.520;10.104;2023-02-01T07:26:09;21.95;;;4.10;;
22270;SDS011;11304;53.520;10.104;2023-02-01T07:28:37;23.92;;;3.92;;
22270;SDS011;11304;53.520;10.104;2023-02-01T07:33:29;25.85;;;4.53;;
22270;SDS011;11304;53.520;10.104;2023-02-01T07:35:55;23.25;;;3.85;;
22270;SDS011;11304;53.520;10.104;2023-02-01T07:38:21;20.30;;;4.00;;
22270;SDS011;11304;53.520;10.104;2023-02-01T07:40:48;28.83;;;4.35;;
22270;SDS011;11304;53.520;10.104;2023-02-01T07:43:15;25.67;;;3.83;;
22270;SDS011;11304;53.520;10.104;2023-02-01T07:45:41;24.67;;;5.10;;
22270;SDS011;11304;53.520;10.104;2023-02-01T07:48:07;27.80;;;5.00;;
22270;SDS011;11304;53.520;10.104;2023-02-01T07:50:33;34.03;;;5.72;;
22270;SDS011;11304;53.520;10.104;2023-02-01T07:52:59;30.50;;;5.07;;
22270;SDS011;11304;53.520;10.104;2023-02-01T07:55:25;33.22;;;5.45;;
22270;SDS011;11304;53.520;10.104;2023-02-01T07:57:52;44.80;;;6.43;;
22270;SDS011;11304;53.520;10.104;2023-02-01T08:00:18;35.70;;;5.78;;
22270;SDS011;11304;53.520;10.104;2023-02-01T08:03:04;34.53;;;5.50;;
22270;SDS011;11304;53.520;10.104;2023-02-01T08:05:30;30.92;;;5.47;;
22270;SDS011;11304;53.520;10.104;2023-02-01T08:07:56;31.63;;;5.57;;
22270;SDS011;11304;53.520;10.104;2023-02-01T08:10:22;35.38;;;5.50;;
22270;SDS011;11304;53.520;10.104;2023-02-01T08:12:48;29.10;;;5.43;;
22270;SDS011;11304;53.520;10.104;2023-02-01T08:15:17;36.67;;;6.43;;
22270;SDS011;11304;53.520;10.104;2023-02-01T08:17:49;30.52;;;5.00;;
22270;SDS011;11304;53.520;10.104;2023-02-01T08:20:18;34.08;;;5.45;;
22270;SDS011;11304;53.520;10.104;2023-02-01T08:22:46;38.80;;;6.13;;
22270;SDS011;11304;53.520;10.104;2023-02-01T08:25:12;31.98;;;5.30;;
22270;SDS011;11304;53.520;10.104;2023-02-01T08:27:39;30.00;;;4.78;;
22270;SDS011;11304;53.520;10.104;2023-02-01T08:30:05;31.65;;;5.82;;
22270;SDS011;11304;53.520;10.104;2023-02-01T08:32:32;41.47;;;6.13;;
22270;SDS011;11304;53.520;10.104;2023-02-01T08:34:59;33.85;;;6.55;;
22270;SDS011;11304;53.520;10.104;2023-02-01T08:37:25;40.75;;;6.60;;
22270;SDS011;11304;53.520;10.104;2023-02-01T08:39:51;38.35;;;6.15;;
22270;SDS011;11304;53.520;10.104;2023-02-01T08:42:17;32.25;;;6.30;;
22270;SDS011;11304;53.520;10.104;2023-02-01T08:45:02;51.60;;;6.18;;
22270;SDS011;11304;53.520;10.104;2023-02-01T08:47:29;26.02;;;5.03;;
22270;SDS011;11304;53.520;10.104;2023-02-01T08:49:56;28.42;;;5.68;;
22270;SDS011;11304;53.520;10.104;2023-02-01T08:52:22;31.92;;;5.07;;
22270;SDS011;11304;53.520;10.104;2023-02-01T08:54:48;30.27;;;5.65;;
22270;SDS011;11304;53.520;10.104;2023-02-01T08:57:14;24.98;;;5.15;;
22270;SDS011;11304;53.520;10.104;2023-02-01T08:59:40;31.60;;;4.97;;
22270;SDS011;11304;53.520;10.104;2023-02-01T09:02:11;35.28;;;5.63;;
22270;SDS011;11304;53.520;10.104;2023-02-01T09:07:03;37.60;;;6.13;;
22270;SDS011;11304;53.520;10.104;2023-02-01T09:09:29;36.53;;;7.55;;
22270;SDS011;11304;53.520;10.104;2023-02-01T09:11:56;35.00;;;7.03;;
22270;SDS011;11304;53.520;10.104;2023-02-01T09:14:22;29.60;;;6.20;;
22270;SDS011;11304;53.520;10.104;2023-02-01T09:16:48;30.25;;;5.78;;
22270;SDS011;11304;53.520;10.104;2023-02-01T09:19:14;27.02;;;5.80;;
22270;SDS011;11304;53.520;10.104;2023-02-01T09:21:41;33.88;;;6.50;;
22270;SDS011;11304;53.520;10.104;2023-02-01T09:24:08;30.55;;;5.70;;
22270;SDS011;11304;53.520;10.104;2023-02-01T09:26:35;23.52;;;5.35;;
22270;SDS011;11304;53.520;10.104;2023-02-01T09:29:02;26.80;;;5.32;;
22270;SDS011;11304;53.520;10.104;2023-02-01T09:31:28;32.42;;;4.97;;
22270;SDS011;11304;53.520;10.104;2023-02-01T09:33:54;24.45;;;4.60;;
22270;SDS011;11304;53.520;10.104;2023-02-01T09:36:21;24.67;;;4.00;;
22270;SDS011;11304;53.520;10.104;2023-02-01T09:38:48;28.38;;;5.10;;
22270;SDS011;11304;53.520;10.104;2023-02-01T10:00:53;24.10;;;4.32;;
22270;SDS011;11304;53.520;10.104;2023-02-01T10:03:23;30.17;;;5.20;;
22270;SDS011;11304;53.520;10.104;2023-02-01T10:08:40;27.20;;;4.88;;
22270;SDS011;11304;53.520;10.104;2023-02-01T10:18:48;22.08;;;4.07;;
22270;SDS011;11304;53.520;10.104;2023-02-01T10:26:32;24.75;;;4.80;;
22270;SDS011;11304;53.520;10.104;2023-02-01T10:29:00;23.70;;;4.63;;
22270;SDS011;11304;53.520;10.104;2023-02-01T10:31:28;35.78;;;6.50;;
22270;SDS011;11304;53.520;10.104;2023-02-01T10:33:57;30.58;;;5.22;;
22270;SDS011;11304;53.520;10.104;2023-02-01T10:38:50;23.95;;;4.60;;
22270;SDS011;11304;53.520;10.104;2023-02-01T10:41:27;23.05;;;4.20;;
22270;SDS011;11304;53.520;10.104;2023-02-01T10:43:55;24.92;;;4.18;;
22270;SDS011;11304;53.520;10.104;2023-02-01T10:46:23;21.63;;;4.65;;
22270;SDS011;11304;53.520;10.104;2023-02-01T10:48:50;23.58;;;4.22;;
22270;SDS011;11304;53.520;10.104;2023-02-01T10:51:22;26.92;;;4.57;;
22270;SDS011;11304;53.520;10.104;2023-02-01T10:56:34;26.38;;;5.00;;
22270;SDS011;11304;53.520;10.104;2023-02-01T10:59:04;30.23;;;4.28;;
22270;SDS011;11304;53.520;10.104;2023-02-01T11:01:34;24.55;;;5.07;;
22270;SDS011;11304;53.520;10.104;2023-02-01T11:04:01;27.48;;;5.15;;
22270;SDS011;11304;53.520;10.104;2023-02-01T11:06:29;33.50;;;4.82;;
22270;SDS011;11304;53.520;10.104;2023-02-01T11:08:57;24.23;;;3.77;;
22270;SDS011;11304;53.520;10.104;2023-02-01T11:11:24;26.30;;;4.35;;
22270;SDS011;11304;53.520;10.104;2023-02-01T11:13:54;26.65;;;5.45;;
22270;SDS011;11304;53.520;10.104;2023-02-01T11:16:21;28.27;;;4.88;;
22270;SDS011;11304;53.520;10.104;2023-02-01T11:18:52;26.45;;;4.93;;
22270;SDS011;11304;53.520;10.104;2023-02-01T11:21:19;25.48;;;4.45;;
22270;SDS011;11304;53.520;10.104;2023-02-01T11:23:47;26.90;;;3.90;;
22270;SDS011;11304;53.520;10.104;2023-02-01T11:28:57;32.30;;;5.80;;
22270;SDS011;11304;53.520;10.104;2023-02-01T11:31:24;29.40;;;3.83;;
22270;SDS011;11304;53.520;10.104;2023-02-01T11:33:52;24.95;;;4.68;;
22270;SDS011;11304;53.520;10.104;2023-02-01T11:36:20;25.83;;;5.05;;
22270;SDS011;11304;53.520;10.104;2023-02-01T11:41:27;23.23;;;4.32;;
22270;SDS011;11304;53.520;10.104;2023-02-01T11:43:57;33.53;;;4.68;;
22270;SDS011;11304;53.520;10.104;2023-02-01T11:46:28;29.63;;;3.58;;
22270;SDS011;11304;53.520;10.104;2023-02-01T11:48:55;27.50;;;4.78;;
22270;SDS011;11304;53.520;10.104;2023-02-01T11:51:40;19.52;;;4.50;;
22270;SDS011;11304;53.520;10.104;2023-02-01T11:54:17;19.42;;;4.22;;
22270;SDS011;11304;53.520;10.104;2023-02-01T12:09:16;17.45;;;3.35;;
22270;SDS011;11304;53.520;10.104;2023-02-01T12:14:39;18.48;;;3.85;;
22270;SDS011;11304;53.520;10.104;2023-02-01T12:27:32;13.07;;;1.92;;
22270;SDS011;11304;53.520;10.104;2023-02-01T12:30:08;11.70;;;2.38;;
22270;SDS011;11304;53.520;10.104;2023-02-01T12:32:43;15.13;;;2.20;;
22270;SDS011;11304;53.520;10.104;2023-02-01T12:42:56;6.13;;;1.52;;
22270;SDS011;11304;53.520;10.104;2023-02-01T12:45:45;4.93;;;1.10;;
22270;SDS011;11304;53.520;10.104;2023-02-01T12:50:41;4.45;;;1.00;;
22270;SDS011;11304;53.520;10.104;2023-02-01T12:53:23;3.58;;;0.90;;
22270;SDS011;11304;53.520;10.104;2023-02-01T12:55:52;4.10;;;1.02;;
22270;SDS011;11304;53.520;10.104;2023-02-01T12:58:21;5.57;;;1.00;;
22270;SDS011;11304;53.520;10.104;2023-02-01T13:03:37;4.95;;;1.00;;
22270;SDS011;11304;53.520;10.104;2023-02-01T13:11:15;2.03;;;0.70;;
22270;SDS011;11304;53.520;10.104;2023-02-01T13:18:49;3.10;;;0.90;;
22270;SDS011;11304;53.520;10.104;2023-02-01T13:21:21;3.85;;;1.17;;
22270;SDS011;11304;53.520;10.104;2023-02-01T13:23:49;3.53;;;1.17;;
22270;SDS011;11304;53.520;10.104;2023-02-01T13:26:16;2.78;;;0.90;;
22270;SDS011;11304;53.520;10.104;2023-02-01T13:28:49;3.63;;;1.73;;
22270;SDS011;11304;53.520;10.104;2023-02-01T13:39:04;3.88;;;1.25;;
22270;SDS011;11304;53.520;10.104;2023-02-01T13:41:41;2.38;;;0.57;;
22270;SDS011;11304;53.520;10.104;2023-02-01T13:44:12;2.60;;;0.90;;
22270;SDS011;11304;53.520;10.104;2023-02-01T13:46:44;4.32;;;1.02;;
22270;SDS011;11304;53.520;10.104;2023-02-01T13:49:19;3.72;;;0.93;;
22270;SDS011;11304;53.520;10.104;2023-02-01T13:51:48;4.07;;;1.08;;
22270;SDS011;11304;53.520;10.104;2023-02-01T13:56:56;3.92;;;0.68;;
22270;SDS011;11304;53.520;10.104;2023-02-01T14:04:50;3.80;;;1.08;;
22270;SDS011;11304;53.520;10.104;2023-02-01T14:07:21;5.28;;;1.05;;
22270;SDS011;11304;53.520;10.104;2023-02-01T14:09:47;6.05;;;1.23;;
22270;SDS011;11304;53.520;10.104;2023-02-01T14:17:43;4.32;;;0.90;;
22270;SDS011;11304;53.520;10.104;2023-02-01T14:23:03;7.95;;;1.65;;
22270;SDS011;11304;53.520;10.104;2023-02-01T14:25:33;8.43;;;1.42;;
22270;SDS011;11304;53.520;10.104;2023-02-01T14:27:59;7.63;;;1.25;;
22270;SDS011;11304;53.520;10.104;2023-02-01T14:30:26;9.32;;;1.92;;
22270;SDS011;11304;53.520;10.104;2023-02-01T14:32:53;8.60;;;1.90;;
22270;SDS011;11304;53.520;10.104;2023-02-01T14:35:19;10.52;;;1.73;;
22270;SDS011;11304;53.520;10.104;2023-02-01T14:37:46;16.05;;;2.50;;
22270;SDS011;11304;53.520;10.104;2023-02-01T14:40:16;11.23;;;2.10;;
22270;SDS011;11304;53.520;10.104;2023-02-01T14:42:46;13.52;;;2.58;;
22270;SDS011;11304;53.520;10.104;2023-02-01T14:55:45;19.42;;;3.00;;
22270;SDS011;11304;53.520;10.104;2023-02-01T14:58:27;11.13;;;1.90;;
22270;SDS011;11304;53.520;10.104;2023-02-01T15:00:58;9.32;;;1.83;;
22270;SDS011;11304;53.520;10.104;2023-02-01T15:05:54;11.55;;;2.22;;
22270;SDS011;11304;53.520;10.104;2023-02-01T15:08:24;14.82;;;2.88;;
22270;SDS011;11304;53.520;10.104;2023-02-01T15:10:51;10.75;;;2.22;;
22270;SDS011;11304;53.520;10.104;2023-02-01T15:13:22;14.80;;;2.80;;
22270;SDS011;11304;53.520;10.104;2023-02-01T15:16:01;11.70;;;2.67;;
22270;SDS011;11304;53.520;10.104;2023-02-01T15:18:28;15.45;;;2.85;;
22270;SDS011;11304;53.520;10.104;2023-02-01T15:20:58;17.77;;;3.47;;
22270;SDS011;11304;53.520;10.104;2023-02-01T15:23:24;18.33;;;2.80;;
22270;SDS011;11304;53.520;10.104;2023-02-01T15:25:50;17.90;;;2.63;;
22270;SDS011;11304;53.520;10.104;2023-02-01T15:28:16;15.65;;;2.85;;
22270;SDS011;11304;53.520;10.104;2023-02-01T15:30:59;14.75;;;2.53;;
22270;SDS011;11304;53.520;10.104;2023-02-01T15:33:26;17.13;;;2.50;;
22270;SDS011;11304;53.520;10.104;2023-02-01T15:43:23;10.52;;;2.35;;
22270;SDS011;11304;53.520;10.104;2023-02-01T15:45:50;13.98;;;2.65;;
22270;SDS011;11304;53.520;10.104;2023-02-01T15:48:21;11.98;;;2.17;;
22270;SDS011;11304;53.520;10.104;2023-02-01T15:50:48;12.73;;;2.30;;
22270;SDS011;11304;53.520;10.104;2023-02-01T15:53:19;19.75;;;2.47;;
22270;SDS011;11304;53.520;10.104;2023-02-01T15:55:46;13.65;;;2.30;;
22270;SDS011;11304;53.520;10.104;2023-02-01T15:58:17;12.95;;;2.30;;
22270;SDS011;11304;53.520;10.104;2023-02-01T16:00:49;18.13;;;3.33;;
22270;SDS011;11304;53.520;10.104;2023-02-01T16:05:58;14.93;;;3.17;;
22270;SDS011;11304;53.520;10.104;2023-02-01T16:08:26;17.30;;;3.30;;
22270;SDS011;11304;53.520;10.104;2023-02-01T16:10:53;14.15;;;2.95;;
22270;SDS011;11304;53.520;10.104;2023-02-01T16:13:20;21.15;;;3.08;;
22270;SDS011;11304;53.520;10.104;2023-02-01T16:15:46;25.60;;;2.97;;
22270;SDS011;11304;53.520;10.104;2023-02-01T16:18:13;17.83;;;3.58;;
22270;SDS011;11304;53.520;10.104;2023-02-01T16:20:40;21.35;;;3.20;;
22270;SDS011;11304;53.520;10.104;2023-02-01T16:23:06;17.70;;;3.47;;
22270;SDS011;11304;53.520;10.104;2023-02-01T16:25:35;17.33;;;3.60;;
22270;SDS011;11304;53.520;10.104;2023-02-01T16:28:02;17.35;;;3.92;;
22270;SDS011;11304;53.520;10.104;2023-02-01T16:30:30;19.83;;;3.35;;
22270;SDS011;11304;53.520;10.104;2023-02-01T16:32:57;17.95;;;3.60;;
22270;SDS011;11304;53.520;10.104;2023-02-01T16:35:24;23.17;;;3.33;;
22270;SDS011;11304;53.520;10.104;2023-02-01T16:37:52;16.83;;;3.78;;
22270;SDS011;11304;53.520;10.104;2023-02-01T16:40:18;20.85;;;3.40;;
22270;SDS011;11304;53.520;10.104;2023-02-01T16:42:47;26.83;;;4.28;;
22270;SDS011;11304;53.520;10.104;2023-02-01T16:45:15;27.15;;;4.13;;
22270;SDS011;11304;53.520;10.104;2023-02-01T16:47:42;27.88;;;5.20;;
22270;SDS011;11304;53.520;10.104;2023-02-01T16:50:14;20.85;;;4.13;;
22270;SDS011;11304;53.520;10.104;2023-02-01T16:52:41;24.27;;;5.13;;
22270;SDS011;11304;53.520;10.104;2023-02-01T16:55:12;26.67;;;4.20;;
22270;SDS011;11304;53.520;10.104;2023-02-01T17:00:42;35.13;;;5.38;;
22270;SDS011;11304;53.520;10.104;2023-02-01T17:03:09;30.35;;;5.22;;
22270;SDS011;11304;53.520;10.104;2023-02-01T17:05:42;29.50;;;5.88;;
22270;SDS011;11304;53.520;10.104;2023-02-01T17:08:09;30.35;;;5.15;;
22270;SDS011;11304;53.520;10.104;2023-02-01T17:10:36;29.15;;;4.60;;
22270;SDS011;11304;53.520;10.104;2023-02-01T17:13:02;41.33;;;5.90;;
22270;SDS011;11304;53.520;10.104;2023-02-01T17:15:29;34.92;;;6.28;;
22270;SDS011;11304;53.520;10.104;2023-02-01T17:17:58;41.78;;;6.32;;
22270;SDS011;11304;53.520;10.104;2023-02-01T17:20:26;35.08;;;5.53;;
22270;SDS011;11304;53.520;10.104;2023-02-01T17:22:55;45.00;;;6.30;;
22270;SDS011;11304;53.520;10.104;2023-02-01T17:25:21;40.78;;;6.05;;
22270;SDS011;11304;53.520;10.104;2023-02-01T17:27:48;38.58;;;5.68;;
22270;SDS011;11304;53.520;10.104;2023-02-01T17:30:14;31.40;;;5.32;;
22270;SDS011;11304;53.520;10.104;2023-02-01T17:32:40;43.60;;;5.38;;
22270;SDS011;11304;53.520;10.104;2023-02-01T17:35:23;28.65;;;5.85;;
22270;SDS011;11304;53.520;10.104;2023-02-01T17:37:50;43.85;;;6.38;;
22270;SDS011;11304;53.520;10.104;2023-02-01T17:40:16;32.58;;;5.50;;